»·PEaware :: N2MZ KSNA-KSBA

N2MZ :: KSNA-KSBA

FLIGHT INFORMATION

Flight Status: Arrived
Operator: Privately registered:
United States
More flights under this callsign
Pilot: Mike Z. (25595)
Aircraft: CESSNA 172 SKYHAWK
(C172)
More flights by this aircraft type
Origin: KSNA John Wayne-Orange Co
United States
Destination: KSBA Santa Barbara Mun
United States
More flights between these airports :: More routes between these airports
Route: + SLI V23 LAX V299 VTU VTU282R KWANG
File this flight plan on PilotEdge
Remarks: CSTP21
Altitude:
(Current/Filed)
6,000ft
Speed:
(Current/Filed)
115kts
Departed: 28-Dec-19 08:24 AM
Arrived: 28-Dec-19 09:27 AM
Distance/Time
Traveled:
108nm/1:03
Distance/Time
To Go:
Arrived

Flight Plot

Page will automatically refresh every two minutes.

Flight plan parsing failed; only flown route is shown


Map Options




Map Legend


Flown Route
Filed Route
Departure Airport
Arrival Airport
Navaid (VOR, NDB)
Fix

Horizontal Profiles

Position Reports

Time Latitude Longitude Heading Altitude Ground
Speed
28-Dec-19 08:07 33.671189 -117.868027 211 60ft 0kts
28-Dec-19 08:08 33.671189 -117.868027 211 60ft 0kts
28-Dec-19 08:09 33.671189 -117.868027 211 60ft 0kts
28-Dec-19 08:10 33.671189 -117.868027 211 60ft 0kts
28-Dec-19 08:11 33.671189 -117.868027 211 60ft 0kts
28-Dec-19 08:12 33.671189 -117.868027 211 60ft 0kts
28-Dec-19 08:13 33.671189 -117.868027 211 60ft 0kts
28-Dec-19 08:14 33.671189 -117.868027 211 60ft 0kts
28-Dec-19 08:15 33.671189 -117.868027 211 60ft 0kts
28-Dec-19 08:16 33.671128 -117.868085 230 60ft 7kts
28-Dec-19 08:17 33.674719 -117.866689 25 60ft 22kts
28-Dec-19 08:18 33.679986 -117.863626 306 60ft 0kts
28-Dec-19 08:19 33.679986 -117.863626 306 60ft 0kts
28-Dec-19 08:20 33.679986 -117.863626 306 60ft 0kts
28-Dec-19 08:21 33.679986 -117.863626 306 60ft 0kts
28-Dec-19 08:22 33.680020 -117.863690 301 60ft 5kts
28-Dec-19 08:23 33.667863 -117.873171 217 415ft 84kts
28-Dec-19 08:24 33.650552 -117.892367 221 1293ft 85kts
28-Dec-19 08:25 33.632761 -117.911779 233 2053ft 92kts
28-Dec-19 08:26 33.641626 -117.934412 319 2836ft 77kts
28-Dec-19 08:27 33.655032 -117.953263 316 3584ft 75kts
28-Dec-19 08:28 33.668776 -117.974340 314 4156ft 92kts
28-Dec-19 08:29 33.687638 -118.005038 310 4156ft 125kts
28-Dec-19 08:30 33.705419 -118.035956 313 4926ft 68kts
28-Dec-19 08:31 33.715854 -118.054159 315 5448ft 76kts
28-Dec-19 08:32 33.728281 -118.075267 315 6045ft 80kts
28-Dec-19 08:33 33.743209 -118.100298 313 6009ft 99kts
28-Dec-19 08:34 33.760004 -118.128899 312 6006ft 107kts
28-Dec-19 08:35 33.777251 -118.158407 311 6005ft 107kts
28-Dec-19 08:36 33.794561 -118.188043 311 6005ft 108kts
28-Dec-19 08:37 33.812032 -118.217985 310 6005ft 109kts
28-Dec-19 08:38 33.829549 -118.248028 310 6005ft 109kts
28-Dec-19 08:39 33.846891 -118.277788 309 6005ft 108kts
28-Dec-19 08:40 33.864214 -118.307540 309 6005ft 108kts
28-Dec-19 08:41 33.881456 -118.337185 309 6005ft 108kts
28-Dec-19 08:42 33.897917 -118.367729 307 6005ft 108kts
28-Dec-19 08:43 33.914514 -118.398188 309 6005ft 108kts
28-Dec-19 08:44 33.931615 -118.428312 306 6004ft 110kts
28-Dec-19 08:45 33.943154 -118.463009 297 6004ft 112kts
28-Dec-19 08:46 33.953714 -118.498563 296 6004ft 113kts
28-Dec-19 08:47 33.964308 -118.534368 296 6005ft 113kts
28-Dec-19 08:48 33.975047 -118.570388 297 6005ft 114kts
28-Dec-19 08:49 33.985763 -118.606291 296 6004ft 113kts
28-Dec-19 08:50 33.996487 -118.641884 297 6003ft 112kts
28-Dec-19 08:51 34.007774 -118.676567 296 6002ft 112kts
28-Dec-19 08:52 34.018579 -118.711874 295 6001ft 111kts
28-Dec-19 08:53 34.029093 -118.746975 295 6000ft 111kts
28-Dec-19 08:54 34.039508 -118.781986 295 5998ft 110kts
28-Dec-19 08:55 34.049856 -118.816877 295 5998ft 110kts
28-Dec-19 08:56 34.060155 -118.851661 295 6000ft 109kts
28-Dec-19 08:57 34.070385 -118.886249 295 6002ft 109kts
28-Dec-19 08:58 34.080565 -118.920701 296 6004ft 109kts
28-Dec-19 08:59 34.090745 -118.955182 296 5982ft 110kts
28-Dec-19 09:00 34.100950 -118.989817 297 5986ft 108kts
28-Dec-19 09:01 34.111119 -119.024342 297 5989ft 109kts
28-Dec-19 09:02 34.122758 -119.057828 305 5988ft 107kts
28-Dec-19 09:03 34.136524 -119.089929 304 5985ft 107kts
28-Dec-19 09:04 34.150181 -119.122111 305 5983ft 108kts
28-Dec-19 09:05 34.163875 -119.154508 305 5980ft 108kts
28-Dec-19 09:06 34.177564 -119.186959 305 5970ft 110kts
28-Dec-19 09:07 34.192970 -119.223346 304 5495ft 128kts
28-Dec-19 09:08 34.209369 -119.262380 304 5005ft 131kts
28-Dec-19 09:09 34.225789 -119.302071 301 4517ft 133kts
28-Dec-19 09:10 34.240773 -119.343640 300 4027ft 135kts
28-Dec-19 09:11 34.256083 -119.381967 304 3990ft 121kts
28-Dec-19 09:12 34.271178 -119.418160 304 3989ft 118kts
28-Dec-19 09:13 34.284960 -119.451218 305 3989ft 106kts
28-Dec-19 09:14 34.299094 -119.485090 303 3989ft 116kts
28-Dec-19 09:15 34.314007 -119.520827 302 3805ft 128kts
28-Dec-19 09:16 34.329812 -119.561062 300 3314ft 133kts
28-Dec-19 09:17 34.345701 -119.601930 299 2820ft 134kts
28-Dec-19 09:18 34.360501 -119.641353 299 2314ft 118kts
28-Dec-19 09:19 34.372328 -119.675555 289 2050ft 100kts
28-Dec-19 09:20 34.383523 -119.702182 297 2086ft 76kts
28-Dec-19 09:21 34.391088 -119.728096 300 2042ft 84kts
28-Dec-19 09:22 34.401866 -119.757547 308 1417ft 104kts
28-Dec-19 09:23 34.414623 -119.788998 294 839ft 105kts
28-Dec-19 09:24 34.425054 -119.815843 293 393ft 70kts
28-Dec-19 09:25 34.427854 -119.837734 270 13ft 63kts
28-Dec-19 09:26 34.428468 -119.845866 84 14ft 0kts
28-Dec-19 09:27 34.428420 -119.845682 97 14ft 2kts
28-Dec-19 09:28 34.431443 -119.837323 70 14ft 28kts
28-Dec-19 09:29 34.432482 -119.835819 350 14ft 0kts
28-Dec-19 09:30 34.432482 -119.835819 350 14ft 0kts

Navigation Log

Ident Type
Flight plan parsing failed, navigation log unavailable